Kirtland AFB, New Mexico
Current Conditions -  °F | °C
As of 6:52 AM on Tuesday 21 Oct 2014 (Local Time) from KABQ Reporting Station
Overcast Overcast  
Wind Chill: 54°   Ceiling: 5000
Heat Index: 54°   Visibility: 10mi
Dew Point: 46°   Wind: 7mph
Humidity: 75%   Direction: 360°N
Pressure: 30.15"   Gusts: NA
Location:  35.03°N, 106.56°W
Report Text: KABQ 211252Z 36006KT 10SM FEW035 BKN050 OVC075 12/08 A3015 RMK AO2 SLP160 MTNS OBSC NE-SE T01220078
Loading
Personal Weather Stations






























Interactive Weather Map
Tropical Storm Tracking
New forecast layout! Learn more

10-Day Weather Forecast

Advertisements
Track Severe Weather on mobile